createdAt,value
2018-09-20T00:02:17.389Z,18.73
2018-09-20T00:04:45.329Z,13.13
2018-09-20T00:07:13.345Z,15.40
2018-09-20T00:09:41.397Z,11.60
2018-09-20T00:12:10.322Z,14.67
2018-09-20T00:14:38.309Z,14.20
2018-09-20T00:17:06.610Z,15.93
2018-09-20T00:19:34.732Z,13.20
2018-09-20T00:22:03.469Z,13.10
2018-09-20T00:24:31.402Z,11.60
2018-09-20T00:27:00.387Z,13.83
2018-09-20T00:29:28.421Z,13.10
2018-09-20T00:31:56.350Z,16.47
2018-09-20T00:34:24.445Z,16.63
2018-09-20T00:36:52.417Z,15.33
2018-09-20T00:39:20.439Z,15.30
2018-09-20T00:41:48.467Z,14.07
2018-09-20T00:44:16.436Z,14.37
2018-09-20T00:46:44.575Z,14.23
2018-09-20T00:49:13.292Z,14.27
2018-09-20T00:51:41.373Z,13.87
2018-09-20T00:54:09.477Z,12.70
2018-09-20T00:56:37.493Z,15.23
2018-09-20T00:59:05.986Z,14.73
2018-09-20T01:01:33.996Z,14.20
2018-09-20T01:04:02.030Z,14.57
2018-09-20T01:06:29.978Z,14.60
2018-09-20T01:08:57.948Z,17.50
2018-09-20T01:11:26.037Z,13.47
2018-09-20T01:13:54.097Z,13.10
2018-09-20T01:16:22.357Z,13.77
2018-09-20T01:18:50.866Z,14.43
2018-09-20T01:21:18.955Z,14.63
2018-09-20T01:23:46.996Z,15.30
2018-09-20T01:26:15.027Z,18.13
2018-09-20T01:28:43.110Z,15.50
2018-09-20T01:31:11.151Z,15.30
2018-09-20T01:33:39.169Z,19.73
2018-09-20T01:36:07.193Z,16.77
2018-09-20T01:38:35.197Z,16.73
2018-09-20T01:41:03.240Z,16.33
2018-09-20T01:43:31.335Z,16.33
2018-09-20T01:45:59.410Z,15.43
2018-09-20T01:48:27.386Z,15.00
2018-09-20T01:50:55.329Z,13.90
2018-09-20T01:53:23.309Z,17.63
2018-09-20T01:55:51.301Z,14.60
2018-09-20T01:58:19.369Z,14.63
2018-09-20T02:00:48.329Z,14.83
2018-09-20T02:03:16.313Z,15.03
2018-09-20T02:05:44.409Z,14.23
2018-09-20T02:08:12.418Z,14.30
2018-09-20T02:10:47.105Z,13.80
2018-09-20T02:13:15.069Z,14.07
2018-09-20T02:15:43.030Z,11.63
2018-09-20T02:18:12.062Z,10.63
2018-09-20T02:20:40.050Z,14.00
2018-09-20T02:23:08.144Z,15.27
2018-09-20T02:25:36.112Z,15.17
2018-09-20T02:28:04.089Z,11.20
2018-09-20T02:30:32.107Z,11.90
2018-09-20T02:33:00.114Z,12.20
2018-09-20T02:35:28.130Z,14.40
2018-09-20T02:37:56.291Z,15.20
2018-09-20T02:40:25.963Z,15.03
2018-09-20T02:42:54.029Z,15.23
2018-09-20T02:45:22.081Z,14.00
2018-09-20T02:47:50.212Z,14.83
2018-09-20T02:50:18.240Z,13.30
2018-09-20T02:52:46.264Z,11.87
2018-09-20T02:55:14.913Z,12.20
2018-09-20T02:57:42.857Z,12.93
2018-09-20T03:00:10.949Z,11.90
2018-09-20T03:02:39.023Z,11.73
2018-09-20T03:05:07.204Z,12.33
2018-09-20T03:07:35.294Z,9.50
2018-09-20T03:10:03.494Z,9.07
2018-09-20T03:12:31.479Z,11.30
2018-09-20T03:14:59.840Z,10.97
2018-09-20T03:17:27.821Z,10.80
2018-09-20T03:19:55.750Z,11.83
2018-09-20T03:22:24.873Z,11.37
2018-09-20T03:24:53.033Z,10.00
2018-09-20T03:27:21.140Z,10.33
2018-09-20T03:29:49.154Z,11.40
2018-09-20T03:32:17.221Z,10.00
2018-09-20T03:34:45.217Z,11.97
2018-09-20T03:37:13.210Z,10.73
2018-09-20T03:39:41.308Z,13.07
2018-09-20T03:42:09.449Z,12.73
2018-09-20T03:44:37.521Z,13.90
2018-09-20T03:47:05.567Z,11.90
2018-09-20T03:49:33.617Z,15.83
2018-09-20T03:52:01.787Z,13.30
2018-09-20T03:54:30.444Z,14.13
2018-09-20T03:56:58.469Z,14.30
2018-09-20T03:59:26.514Z,12.50
2018-09-20T04:01:54.553Z,12.03
2018-09-20T04:04:22.633Z,11.47
2018-09-20T04:06:50.609Z,12.50
2018-09-20T04:09:18.605Z,13.37
2018-09-20T04:11:46.735Z,12.37
2018-09-20T04:14:15.304Z,12.80
2018-09-20T04:16:43.472Z,11.17
2018-09-20T04:19:11.473Z,12.20
2018-09-20T04:21:39.457Z,10.70
2018-09-20T04:24:07.409Z,9.77
2018-09-20T04:26:35.450Z,12.97
2018-09-20T04:29:03.523Z,9.90
2018-09-20T04:31:31.775Z,9.57
2018-09-20T04:34:01.562Z,11.00
2018-09-20T04:36:30.246Z,11.30
2018-09-20T04:38:58.428Z,10.63
2018-09-20T04:41:26.469Z,14.20
2018-09-20T04:43:54.714Z,13.40
2018-09-20T04:46:22.882Z,12.87
2018-09-20T04:48:51.334Z,12.00
2018-09-20T04:51:19.398Z,13.13
2018-09-20T04:53:47.572Z,12.13
2018-09-20T04:56:15.533Z,10.23
2018-09-20T04:58:43.908Z,9.10
2018-09-20T05:01:11.932Z,10.03
2018-09-20T05:03:39.892Z,9.57
2018-09-20T05:06:07.978Z,10.53
2018-09-20T05:08:36.033Z,10.10
2018-09-20T05:11:05.035Z,10.00
2018-09-20T05:13:33.073Z,8.70
2018-09-20T05:16:30.515Z,8.47
2018-09-20T05:18:58.482Z,8.63
2018-09-20T05:21:26.559Z,9.53
2018-09-20T05:23:54.759Z,10.90
2018-09-20T05:26:22.770Z,11.37
2018-09-20T05:28:51.406Z,11.67
2018-09-20T05:31:19.946Z,12.10
2018-09-20T05:33:48.121Z,13.40
2018-09-20T05:36:16.228Z,13.27
2018-09-20T05:38:44.301Z,12.80
2018-09-20T05:41:12.265Z,13.33
2018-09-20T05:43:40.383Z,13.47
2018-09-20T05:46:08.393Z,14.13
2018-09-20T05:48:36.341Z,15.13
2018-09-20T05:51:04.302Z,15.17
2018-09-20T05:53:32.382Z,15.57
2018-09-20T05:56:00.793Z,15.80
2018-09-20T05:58:28.887Z,14.77
2018-09-20T06:00:56.993Z,13.57
2018-09-20T06:03:25.953Z,13.20
2018-09-20T06:05:54.010Z,16.23
2018-09-20T06:08:22.089Z,12.77
2018-09-20T06:10:50.168Z,18.83
2018-09-20T06:13:18.872Z,17.13
2018-09-20T06:15:46.827Z,15.57
2018-09-20T06:18:14.824Z,14.63
2018-09-20T06:20:42.859Z,13.30
2018-09-20T06:23:11.632Z,14.20
2018-09-20T06:25:39.620Z,14.00
2018-09-20T06:28:07.657Z,14.37
2018-09-20T06:30:35.640Z,14.33
2018-09-20T06:33:03.702Z,13.70
2018-09-20T06:35:32.257Z,14.73
2018-09-20T06:38:00.254Z,12.60
2018-09-20T06:40:28.331Z,13.27
2018-09-20T06:42:56.307Z,14.93
2018-09-20T06:45:24.316Z,15.80
2018-09-20T06:47:52.290Z,14.30
2018-09-20T06:50:20.421Z,14.00
2018-09-20T06:52:48.385Z,14.73
2018-09-20T06:55:16.439Z,11.97
2018-09-20T06:57:44.452Z,13.57
2018-09-20T07:00:12.554Z,14.80
2018-09-20T07:02:40.617Z,12.73
2018-09-20T07:05:08.596Z,12.67
2018-09-20T07:07:36.571Z,14.77
2018-09-20T07:10:04.652Z,13.60
2018-09-20T07:12:32.624Z,13.40
2018-09-20T07:15:00.670Z,13.70
2018-09-20T07:17:28.622Z,15.20
2018-09-20T07:19:56.688Z,14.37
2018-09-20T07:22:24.702Z,14.60
2018-09-20T07:24:52.701Z,15.57
2018-09-20T07:27:20.747Z,15.53
2018-09-20T07:29:48.944Z,13.00
2018-09-20T07:32:17.020Z,16.13
2018-09-20T07:34:44.953Z,14.87
2018-09-20T07:37:13.060Z,16.17
2018-09-20T07:39:41.853Z,13.50
2018-09-20T07:42:09.835Z,14.90
2018-09-20T07:44:37.807Z,19.37
2018-09-20T07:47:05.837Z,16.47
2018-09-20T07:49:33.797Z,17.73
2018-09-20T07:52:01.875Z,14.20
2018-09-20T07:54:30.061Z,13.63
2018-09-20T07:56:58.055Z,15.70
2018-09-20T07:59:26.032Z,14.40
2018-09-20T08:01:54.003Z,14.20
2018-09-20T08:04:22.046Z,16.27
2018-09-20T08:06:50.072Z,15.97
2018-09-20T08:09:18.050Z,15.93
2018-09-20T08:11:45.978Z,14.60
2018-09-20T08:14:13.961Z,14.53
2018-09-20T08:16:41.948Z,13.43
2018-09-20T08:19:09.933Z,15.67
2018-09-20T08:21:37.971Z,14.57
2018-09-20T08:24:05.985Z,14.80
2018-09-20T08:26:33.937Z,15.87
2018-09-20T08:29:01.898Z,16.57
2018-09-20T08:31:29.829Z,15.83
2018-09-20T08:33:57.827Z,15.97
2018-09-20T08:36:25.985Z,15.27
2018-09-20T08:38:53.949Z,15.17
2018-09-20T08:41:21.869Z,14.37
2018-09-20T08:43:49.898Z,15.13
2018-09-20T08:46:17.851Z,15.30
2018-09-20T08:48:45.835Z,13.00
2018-09-20T08:51:13.921Z,13.97
2018-09-20T08:53:41.877Z,14.30
2018-09-20T08:56:09.805Z,12.53
2018-09-20T08:58:37.786Z,12.47
2018-09-20T09:01:05.801Z,13.47
2018-09-20T09:03:33.882Z,13.63
2018-09-20T09:06:01.912Z,13.20
2018-09-20T09:08:29.874Z,13.97
2018-09-20T09:10:57.933Z,15.60
2018-09-20T09:13:25.980Z,13.80
2018-09-20T09:15:53.999Z,14.00
2018-09-20T09:18:22.428Z,15.20
2018-09-20T09:20:50.449Z,15.37
2018-09-20T09:23:18.361Z,14.27
2018-09-20T09:25:48.416Z,12.87
2018-09-20T09:28:16.407Z,13.80
2018-09-20T09:30:44.368Z,13.17
2018-09-20T09:33:12.304Z,13.60
2018-09-20T09:35:40.315Z,11.40
2018-09-20T09:38:08.209Z,12.50
2018-09-20T09:40:36.133Z,13.10
2018-09-20T09:43:04.137Z,10.60
2018-09-20T09:45:32.109Z,13.40
2018-09-20T09:48:00.159Z,14.63
2018-09-20T09:50:28.145Z,10.67
2018-09-20T09:52:56.177Z,10.73
2018-09-20T09:55:24.074Z,11.40
2018-09-20T09:57:52.245Z,12.53
2018-09-20T10:00:25.633Z,12.47
2018-09-20T10:02:53.630Z,12.20
2018-09-20T10:05:21.622Z,11.20
2018-09-20T10:07:49.572Z,10.87
2018-09-20T10:10:17.484Z,13.53
2018-09-20T10:12:45.470Z,11.53
2018-09-20T10:15:13.446Z,12.57
2018-09-20T10:17:41.505Z,11.40
2018-09-20T10:20:09.457Z,12.20
2018-09-20T10:22:37.384Z,9.93
2018-09-20T10:25:05.361Z,10.43
2018-09-20T10:27:33.320Z,10.70
2018-09-20T10:30:01.475Z,11.83
2018-09-20T10:32:29.845Z,9.47
2018-09-20T10:34:57.748Z,9.90
2018-09-20T10:37:25.721Z,10.50
2018-09-20T10:39:54.665Z,9.17
2018-09-20T10:42:23.329Z,11.57
2018-09-20T10:44:51.293Z,10.70
2018-09-20T10:47:19.368Z,10.00
2018-09-20T10:49:47.506Z,9.20
2018-09-20T10:52:15.479Z,10.80
2018-09-20T10:54:44.070Z,11.03
2018-09-20T10:57:12.103Z,9.20
2018-09-20T10:59:40.138Z,10.90
2018-09-20T11:02:08.095Z,11.43
2018-09-20T11:04:36.067Z,9.60
2018-09-20T11:07:04.141Z,9.90
2018-09-20T11:09:32.150Z,9.53
2018-09-20T11:12:00.125Z,9.50
2018-09-20T11:14:28.211Z,9.07
2018-09-20T11:16:56.082Z,10.53
2018-09-20T11:19:24.055Z,11.63
2018-09-20T11:21:52.022Z,9.70
2018-09-20T11:24:19.921Z,11.57
2018-09-20T11:26:47.894Z,10.07
2018-09-20T11:29:15.877Z,9.77
2018-09-20T11:31:43.890Z,10.23
2018-09-20T11:34:12.010Z,9.33
2018-09-20T11:36:40.641Z,7.63
2018-09-20T11:39:10.949Z,8.33
2018-09-20T11:41:39.170Z,8.67
2018-09-20T11:44:07.268Z,9.07
2018-09-20T11:46:35.380Z,8.87
2018-09-20T11:49:03.343Z,9.20
2018-09-20T11:51:31.466Z,8.03
2018-09-20T11:53:59.509Z,10.13
2018-09-20T11:56:27.512Z,8.90
2018-09-20T11:58:55.445Z,7.67
2018-09-20T12:01:24.535Z,8.90
2018-09-20T12:03:52.682Z,8.90
2018-09-20T12:06:21.117Z,8.10
2018-09-20T12:08:49.119Z,8.73
2018-09-20T12:11:17.059Z,7.80
2018-09-20T12:13:45.013Z,7.90
2018-09-20T12:16:13.283Z,7.03
2018-09-20T12:18:41.286Z,7.27
2018-09-20T12:21:09.265Z,7.90
2018-09-20T12:23:37.333Z,6.70
2018-09-20T12:26:05.411Z,7.33
2018-09-20T12:28:33.394Z,9.10
2018-09-20T12:31:01.328Z,8.20
2018-09-20T12:33:29.377Z,7.47
2018-09-20T12:35:57.492Z,8.60
2018-09-20T12:38:25.615Z,7.93
2018-09-20T12:40:53.990Z,7.90
2018-09-20T12:43:21.927Z,7.93
2018-09-20T12:45:49.954Z,11.00
2018-09-20T12:48:17.963Z,7.50
2018-09-20T12:50:45.912Z,7.90
2018-09-20T12:53:13.901Z,7.60
2018-09-20T12:55:41.967Z,8.70
2018-09-20T12:58:10.503Z,7.67
2018-09-20T13:00:38.467Z,7.30
2018-09-20T13:03:06.478Z,6.57
2018-09-20T13:05:34.654Z,7.00
2018-09-20T13:08:02.666Z,7.70
2018-09-20T13:10:30.658Z,6.83
2018-09-20T13:12:58.545Z,7.20
2018-09-20T13:15:26.481Z,6.80
2018-09-20T13:17:54.466Z,7.10
2018-09-20T13:20:22.512Z,8.33
2018-09-20T13:22:50.466Z,7.50
2018-09-20T13:25:18.510Z,7.40
2018-09-20T13:27:46.497Z,7.87
2018-09-20T13:30:14.559Z,7.00
2018-09-20T13:32:42.574Z,7.60
2018-09-20T13:35:10.569Z,7.17
2018-09-20T13:37:38.554Z,7.50
2018-09-20T13:40:06.637Z,6.90
2018-09-20T13:42:34.633Z,7.27
2018-09-20T13:45:02.626Z,7.00
2018-09-20T13:47:30.587Z,7.67
2018-09-20T13:49:58.521Z,7.47
2018-09-20T13:52:26.498Z,7.17
2018-09-20T13:54:54.299Z,7.37
2018-09-20T13:57:22.093Z,6.80
2018-09-20T13:59:49.961Z,6.80
2018-09-20T14:02:17.756Z,6.50
2018-09-20T14:04:45.546Z,6.47
2018-09-20T14:07:13.345Z,5.90
2018-09-20T14:09:41.203Z,6.43
2018-09-20T14:12:09.013Z,6.60
2018-09-20T14:14:36.820Z,6.47
2018-09-20T14:17:04.640Z,6.40
2018-09-20T14:19:32.478Z,6.50
2018-09-20T14:22:00.288Z,6.70
2018-09-20T14:24:28.160Z,5.73
2018-09-20T14:26:55.931Z,5.50
2018-09-20T14:29:23.794Z,6.87
2018-09-20T14:31:51.589Z,6.23
2018-09-20T14:34:19.378Z,6.17
2018-09-20T14:36:47.200Z,6.00
2018-09-20T14:39:14.957Z,6.80
2018-09-20T14:41:42.783Z,6.43
2018-09-20T14:44:10.580Z,6.00
2018-09-20T14:46:38.425Z,5.90
2018-09-20T14:49:06.221Z,6.63
2018-09-20T14:51:34.015Z,6.87
2018-09-20T14:54:02.316Z,5.67
2018-09-20T14:56:30.148Z,5.70
2018-09-20T14:58:58.016Z,6.60
2018-09-20T15:01:25.794Z,6.50
2018-09-20T15:03:53.591Z,6.73
2018-09-20T15:06:21.421Z,5.63
2018-09-20T15:08:49.220Z,6.30
2018-09-20T15:11:17.289Z,7.93
2018-09-20T15:13:45.055Z,6.60
2018-09-20T15:16:12.805Z,6.80
2018-09-20T15:18:40.596Z,6.37
2018-09-20T15:21:08.464Z,6.30
2018-09-20T15:23:36.414Z,6.47
2018-09-20T15:26:04.214Z,7.20
2018-09-20T15:28:32.699Z,6.60
2018-09-20T15:31:01.267Z,6.80
2018-09-20T15:33:29.183Z,6.53
2018-09-20T15:35:57.197Z,6.43
2018-09-20T15:38:25.003Z,6.47
2018-09-20T15:40:53.593Z,6.60
2018-09-20T15:43:21.389Z,6.43
2018-09-20T15:45:49.180Z,7.03
2018-09-20T15:48:17.021Z,7.20
2018-09-20T15:50:44.986Z,6.27
2018-09-20T15:53:12.756Z,6.80
2018-09-20T15:55:41.439Z,5.47
2018-09-20T15:58:09.316Z,7.13
2018-09-20T16:00:37.143Z,6.10
2018-09-20T16:03:04.945Z,6.03
2018-09-20T16:05:32.804Z,6.13
2018-09-20T16:08:00.664Z,7.10
2018-09-20T16:10:29.305Z,5.97
2018-09-20T16:12:57.184Z,6.73
2018-09-20T16:15:24.944Z,6.40
2018-09-20T16:17:52.825Z,6.97
2018-09-20T16:20:20.698Z,6.17
2018-09-20T16:22:48.493Z,5.50
2018-09-20T16:25:16.546Z,6.50
2018-09-20T16:27:44.568Z,7.10
2018-09-20T16:30:36.646Z,6.80
2018-09-20T16:33:19.024Z,6.57
2018-09-20T16:35:59.894Z,6.27
2018-09-20T16:38:43.701Z,7.73
2018-09-20T16:41:14.823Z,7.27
2018-09-20T16:43:42.849Z,6.93
2018-09-20T16:46:17.289Z,6.63
2018-09-20T16:48:45.322Z,6.77
2018-09-20T16:51:13.294Z,6.50
2018-09-20T16:53:41.925Z,7.63
2018-09-20T16:56:09.764Z,6.70
2018-09-20T16:58:37.625Z,8.03
2018-09-20T17:01:05.968Z,6.73
2018-09-20T17:03:33.736Z,7.20
2018-09-20T17:06:01.578Z,7.33
2018-09-20T17:08:29.463Z,7.07
2018-09-20T17:10:57.268Z,6.27
2018-09-20T17:13:25.117Z,6.73
2018-09-20T17:15:52.937Z,6.50
2018-09-20T17:18:20.776Z,7.43
2018-09-20T17:20:49.129Z,6.87
2018-09-20T17:23:16.993Z,7.10
2018-09-20T17:25:44.826Z,7.23
2018-09-20T17:28:12.613Z,7.87
2018-09-20T17:30:40.472Z,8.07
2018-09-20T17:33:08.304Z,7.63
2018-09-20T17:35:36.513Z,8.23
2018-09-20T17:38:05.013Z,7.63
2018-09-20T17:40:33.603Z,8.47
2018-09-20T17:43:03.933Z,8.20
2018-09-20T17:45:32.901Z,8.17
2018-09-20T17:48:00.768Z,9.37
2018-09-20T17:50:28.680Z,7.73
2018-09-20T17:52:56.678Z,9.30
2018-09-20T17:55:24.821Z,12.10
2018-09-20T17:57:52.842Z,9.13
2018-09-20T18:00:23.024Z,9.53
2018-09-20T18:02:51.365Z,8.93
2018-09-20T18:05:19.297Z,8.57
2018-09-20T18:07:47.142Z,14.47
2018-09-20T18:10:14.940Z,11.00
2018-09-20T18:12:42.875Z,9.50
2018-09-20T18:15:10.981Z,12.67
2018-09-20T18:17:38.750Z,8.93
2018-09-20T18:20:06.550Z,8.47
2018-09-20T18:22:34.312Z,10.20
2018-09-20T18:25:02.054Z,9.70
2018-09-20T18:27:29.868Z,10.03
2018-09-20T18:29:57.648Z,9.67
2018-09-20T18:32:25.557Z,11.03
2018-09-20T18:34:53.324Z,9.73
2018-09-20T18:37:21.136Z,9.67
2018-09-20T18:39:49.242Z,11.97
2018-09-20T18:42:17.088Z,10.07
2018-09-20T18:44:45.094Z,10.33
2018-09-20T18:47:13.248Z,11.90
2018-09-20T18:49:41.680Z,9.77
2018-09-20T18:52:09.527Z,9.73
2018-09-20T18:54:37.272Z,14.13
2018-09-20T18:57:05.090Z,10.00
2018-09-20T18:59:33.521Z,9.60
2018-09-20T19:02:01.503Z,10.20
2018-09-20T19:04:29.427Z,10.00
2018-09-20T19:06:57.352Z,9.50
2018-09-20T19:09:25.484Z,9.97
2018-09-20T19:11:53.526Z,10.17
2018-09-20T19:14:21.536Z,10.50
2018-09-20T19:16:49.533Z,10.20
2018-09-20T19:19:17.466Z,11.43
2018-09-20T19:21:45.513Z,11.07
2018-09-20T19:24:13.495Z,11.47
2018-09-20T19:26:41.523Z,10.70
2018-09-20T19:29:09.526Z,11.07
2018-09-20T19:31:37.522Z,10.23
2018-09-20T19:34:05.637Z,10.57
2018-09-20T19:36:33.636Z,11.87
2018-09-20T19:39:01.592Z,10.20
2018-09-20T19:41:29.521Z,11.17
2018-09-20T19:43:57.562Z,11.10
2018-09-20T19:46:25.510Z,12.47
2018-09-20T19:48:53.483Z,12.97
2018-09-20T19:51:21.471Z,12.33
2018-09-20T19:53:49.493Z,11.83
2018-09-20T19:56:17.461Z,11.60
2018-09-20T19:58:45.401Z,10.00
2018-09-20T20:01:13.436Z,10.60
2018-09-20T20:03:41.796Z,11.53
2018-09-20T20:06:09.833Z,12.03
2018-09-20T20:08:37.787Z,11.47
2018-09-20T20:11:05.833Z,11.50
2018-09-20T20:13:33.797Z,12.97
2018-09-20T20:16:01.757Z,13.23
2018-09-20T20:18:29.762Z,13.43
2018-09-20T20:20:57.878Z,11.77
2018-09-20T20:23:25.819Z,11.50
2018-09-20T20:25:53.799Z,12.53
2018-09-20T20:28:21.782Z,11.77
2018-09-20T20:30:49.861Z,12.20
2018-09-20T20:33:17.748Z,12.63
2018-09-20T20:35:45.710Z,11.47
2018-09-20T20:38:13.724Z,12.50
2018-09-20T20:40:41.725Z,13.33
2018-09-20T20:43:09.730Z,13.83
2018-09-20T20:45:37.678Z,13.87
2018-09-20T20:48:05.745Z,14.53
2018-09-20T20:50:33.741Z,15.83
2018-09-20T20:53:01.689Z,15.67
2018-09-20T20:55:29.646Z,15.17
2018-09-20T20:57:57.602Z,14.67
2018-09-20T21:00:25.562Z,13.00
2018-09-20T21:02:53.628Z,14.33
2018-09-20T21:05:21.580Z,14.67
2018-09-20T21:07:49.525Z,17.10
2018-09-20T21:10:17.498Z,14.60
2018-09-20T21:12:45.450Z,14.10
2018-09-20T21:15:13.391Z,14.60
2018-09-20T21:17:41.309Z,14.97
2018-09-20T21:20:09.358Z,14.07
2018-09-20T21:22:37.353Z,13.77
2018-09-20T21:25:05.392Z,12.50
2018-09-20T21:27:33.439Z,15.00
2018-09-20T21:30:01.513Z,12.80
2018-09-20T21:32:30.129Z,14.80
2018-09-20T21:34:58.067Z,15.77
2018-09-20T21:37:26.135Z,14.80
2018-09-20T21:39:54.170Z,15.30
2018-09-20T21:42:22.192Z,14.73
2018-09-20T21:44:50.634Z,16.00
2018-09-20T21:47:18.617Z,13.80
2018-09-20T21:49:46.597Z,16.23
2018-09-20T21:52:14.634Z,14.97
2018-09-20T21:54:43.200Z,16.30
2018-09-20T21:57:11.263Z,15.00
2018-09-20T21:59:39.274Z,18.90
2018-09-20T22:02:07.980Z,16.00
2018-09-20T22:04:36.017Z,16.17
2018-09-20T22:07:04.042Z,15.20
2018-09-20T22:09:32.046Z,17.53
2018-09-20T22:12:00.109Z,16.37
2018-09-20T22:14:28.118Z,18.33
2018-09-20T22:16:56.933Z,18.00
2018-09-20T22:19:24.915Z,18.10
2018-09-20T22:21:52.868Z,17.23
2018-09-20T22:24:20.907Z,17.80
2018-09-20T22:26:49.818Z,18.03
2018-09-20T22:29:18.287Z,17.40
2018-09-20T22:31:46.269Z,18.10
2018-09-20T22:34:14.432Z,17.30
2018-09-20T22:36:43.146Z,15.90
2018-09-20T22:39:11.685Z,16.80
2018-09-20T22:41:39.801Z,14.93
2018-09-20T22:44:07.965Z,16.00
2018-09-20T22:46:35.975Z,17.70
2018-09-20T22:49:03.969Z,19.40
2018-09-20T22:51:31.898Z,17.73
2018-09-20T22:53:59.829Z,22.90
2018-09-20T22:56:27.773Z,19.67
2018-09-20T22:58:55.683Z,19.63
2018-09-20T23:01:23.555Z,17.57
2018-09-20T23:03:51.480Z,18.80
2018-09-20T23:06:19.437Z,21.50
2018-09-20T23:08:47.293Z,20.73
2018-09-20T23:11:15.202Z,19.10
2018-09-20T23:13:43.092Z,17.93
2018-09-20T23:16:10.968Z,17.63
2018-09-20T23:18:38.897Z,19.67
2018-09-20T23:21:06.848Z,18.60
2018-09-20T23:23:34.805Z,19.67
2018-09-20T23:26:02.719Z,18.20
2018-09-20T23:28:30.624Z,17.23
2018-09-20T23:30:58.545Z,18.10
2018-09-20T23:33:26.412Z,21.37
2018-09-20T23:35:54.322Z,19.67
2018-09-20T23:38:22.201Z,18.60
2018-09-20T23:40:50.137Z,19.93
2018-09-20T23:43:18.063Z,19.63
2018-09-20T23:45:46.001Z,21.63
2018-09-20T23:48:13.903Z,20.33
2018-09-20T23:50:41.817Z,21.70
2018-09-20T23:53:09.729Z,20.00
2018-09-20T23:55:37.645Z,19.90
2018-09-20T23:58:05.681Z,21.00
